Time;durP1;ratioP1;P1;durP2;ratioP2;P2;SDS_P1;SDS_P2;PMS_P1;PMS_P2;Temp;Humidity;BMP_temperature;BMP_pressure;BME280_temperature;BME280_humidity;BME280_pressure;Samples;Min_cycle;Max_cycle;Signal;HPM_P1;HPM_P2
2022/06/01 00:00:24;;;;;;;7.63;7.03;;;15.90;99.90;;;;;;5032418;28;20436;-44
2022/06/01 00:02:50;;;;;;;8.10;7.33;;;16.30;99.90;;;;;;5032363;28;20485;-44
2022/06/01 00:05:19;;;;;;;7.97;7.17;;;16.00;99.90;;;;;;5032592;28;20428;-44
2022/06/01 00:07:47;;;;;;;8.17;7.37;;;16.30;99.90;;;;;;5032411;28;20817;-45
2022/06/01 00:10:14;;;;;;;8.47;7.77;;;15.50;99.90;;;;;;5032135;28;20428;-45
2022/06/01 00:12:41;;;;;;;9.53;8.60;;;16.00;99.90;;;;;;5031045;28;20482;-45
2022/06/01 00:15:09;;;;;;;9.00;8.17;;;15.50;99.90;;;;;;5032695;28;20450;-45
2022/06/01 00:17:36;;;;;;;9.73;8.73;;;16.00;99.90;;;;;;5030868;28;20443;-45
2022/06/01 00:20:03;;;;;;;8.40;7.60;;;15.40;99.90;;;;;;5031907;28;20443;-45
2022/06/01 00:22:30;;;;;;;8.97;7.80;;;15.90;99.90;;;;;;5032177;28;20872;-45
2022/06/01 00:24:58;;;;;;;9.70;8.80;;;15.80;99.90;;;;;;5032442;28;20458;-45
2022/06/01 00:27:25;;;;;;;10.20;7.63;;;16.30;99.90;;;;;;5032203;28;20444;-45
2022/06/01 00:29:52;;;;;;;9.03;8.13;;;15.80;99.90;;;;;;5032040;28;20446;-45
2022/06/01 00:32:18;;;;;;;7.80;7.10;;;15.40;99.90;;;;;;5032739;28;20920;-45
2022/06/01 00:34:45;;;;;;;8.20;7.40;;;16.20;99.90;;;;;;5032232;28;20916;-45
2022/06/01 00:37:12;;;;;;;9.80;8.30;;;15.80;99.90;;;;;;5032259;28;20817;-45
2022/06/01 00:39:39;;;;;;;10.00;7.77;;;15.70;99.90;;;;;;5031989;28;20780;-44
2022/06/01 00:42:12;;;;;;;9.43;8.53;;;15.80;99.90;;;;;;5032284;28;20475;-45
2022/06/01 00:44:38;;;;;;;10.07;9.17;;;15.80;99.90;;;;;;5032130;28;20832;-46
2022/06/01 00:47:05;;;;;;;11.10;10.20;;;15.60;99.90;;;;;;5032193;28;20932;-45
2022/06/01 00:49:34;;;;;;;11.00;10.03;;;16.10;99.90;;;;;;5032201;28;20439;-45
2022/06/01 00:52:01;;;;;;;11.57;10.53;;;15.40;99.90;;;;;;5032374;28;20432;-45
2022/06/01 00:54:28;;;;;;;12.90;10.77;;;15.70;99.90;;;;;;5031943;28;20517;-45
2022/06/01 00:56:58;;;;;;;10.80;9.97;;;15.90;99.90;;;;;;5032088;28;20439;-45
2022/06/01 00:59:33;;;;;;;11.73;10.63;;;15.60;99.90;;;;;;5031614;28;20436;-44
2022/06/01 01:02:02;;;;;;;9.50;8.63;;;15.60;99.90;;;;;;5031785;28;20966;-45
2022/06/01 01:04:31;;;;;;;10.17;9.17;;;15.60;99.90;;;;;;5032381;28;20455;-45
2022/06/01 01:07:02;;;;;;;10.93;9.07;;;16.00;99.90;;;;;;5032479;28;20934;-44
2022/06/01 01:09:29;;;;;;;9.33;8.53;;;15.80;99.90;;;;;;5031570;28;20439;-45
2022/06/01 01:11:59;;;;;;;9.03;7.60;;;16.10;99.90;;;;;;5032109;28;20442;-44
2022/06/01 01:14:31;;;;;;;8.70;7.73;;;15.80;99.90;;;;;;5031808;28;20463;-44
2022/06/01 01:16:59;;;;;;;9.10;8.30;;;15.80;99.90;;;;;;5032249;28;20457;-45
2022/06/01 01:19:34;;;;;;;8.37;7.57;;;15.70;99.90;;;;;;5031466;28;20856;-45
2022/06/01 01:22:18;;;;;;;8.43;7.63;;;15.90;99.90;;;;;;5031633;28;20448;-45
2022/06/01 01:25:15;;;;;;;7.90;7.20;;;15.80;99.90;;;;;;5031616;28;20656;-45
2022/06/01 01:27:42;;;;;;;8.37;7.53;;;15.70;99.90;;;;;;5031640;28;20794;-45
2022/06/01 01:30:28;;;;;;;9.47;8.40;;;15.60;99.90;;;;;;5031205;28;20827;-45
2022/06/01 01:32:54;;;;;;;8.90;8.10;;;15.70;99.90;;;;;;5031798;28;20462;-45
2022/06/01 01:35:21;;;;;;;7.70;7.10;;;15.50;99.90;;;;;;5031531;28;20434;-44
2022/06/01 01:37:49;;;;;;;7.93;7.13;;;15.70;99.90;;;;;;5033702;28;20435;-43
2022/06/01 01:40:17;;;;;;;8.70;7.90;;;15.70;99.90;;;;;;5034935;28;20473;-44
2022/06/01 01:42:45;;;;;;;7.90;7.10;;;15.80;99.90;;;;;;5035292;28;20479;-45
2022/06/01 01:45:18;;;;;;;7.97;6.20;;;16.00;99.90;;;;;;5035064;28;20437;-45
2022/06/01 01:47:44;;;;;;;7.57;6.87;;;15.40;99.90;;;;;;5035448;28;20955;-45
2022/06/01 01:50:12;;;;;;;6.50;5.90;;;15.60;99.90;;;;;;5035148;28;20454;-46
2022/06/01 01:52:38;;;;;;;7.47;6.77;;;16.10;99.90;;;;;;5036661;28;20933;-45
2022/06/01 01:55:10;;;;;;;6.23;5.63;;;15.60;99.90;;;;;;5037326;28;20495;-44
2022/06/01 01:57:48;;;;;;;6.90;5.80;;;15.90;99.90;;;;;;5036965;28;20451;-45
2022/06/01 02:00:18;;;;;;;6.00;5.50;;;15.90;99.90;;;;;;5037440;28;20443;-45
2022/06/01 02:02:52;;;;;;;6.63;6.00;;;15.70;99.90;;;;;;5036467;28;20480;-45
2022/06/01 02:08:16;;;;;;;7.40;6.70;;;15.50;99.90;;;;;;5035454;28;20506;-45
2022/06/01 02:13:29;;;;;;;6.63;5.80;;;15.40;99.90;;;;;;5035101;28;20473;-45
2022/06/01 02:15:58;;;;;;;7.67;6.30;;;15.60;99.90;;;;;;5034699;28;20424;-45
2022/06/01 02:18:30;;;;;;;6.50;6.00;;;15.40;99.90;;;;;;5034209;28;20808;-45
2022/06/01 02:20:59;;;;;;;6.67;5.93;;;15.40;99.90;;;;;;5034383;28;20432;-46
2022/06/01 02:23:29;;;;;;;6.60;6.10;;;15.80;99.90;;;;;;5034496;28;20486;-45
2022/06/01 02:25:56;;;;;;;5.13;4.73;;;15.60;99.90;;;;;;5034488;28;20504;-45
2022/06/01 02:28:23;;;;;;;8.17;6.70;;;15.50;99.90;;;;;;5034093;28;20730;-45
2022/06/01 02:30:52;;;;;;;6.43;5.80;;;15.50;99.90;;;;;;5034350;28;20450;-46
2022/06/01 02:33:23;;;;;;;6.87;6.20;;;15.80;99.90;;;;;;5034314;28;20462;-45
2022/06/01 02:35:53;;;;;;;7.03;6.30;;;15.60;99.90;;;;;;5034277;28;20450;-45
2022/06/01 02:38:25;;;;;;;6.47;5.90;;;15.70;99.90;;;;;;5034198;28;20440;-45
2022/06/01 02:40:52;;;;;;;6.50;5.90;;;15.40;99.90;;;;;;5034391;28;20416;-46
2022/06/01 02:43:19;;;;;;;6.03;5.50;;;15.10;99.90;;;;;;5033908;28;20839;-44
2022/06/01 02:45:45;;;;;;;6.17;5.57;;;15.80;99.90;;;;;;5034112;28;20758;-44
2022/06/01 02:48:13;;;;;;;6.90;6.20;;;15.50;99.90;;;;;;5033525;28;20447;-44
2022/06/01 02:50:40;;;;;;;5.90;5.30;;;15.60;99.90;;;;;;5033645;28;20442;-44
2022/06/01 02:53:07;;;;;;;5.83;5.23;;;15.40;99.90;;;;;;5033955;28;20820;-45
2022/06/01 02:55:34;;;;;;;5.93;5.13;;;15.60;99.90;;;;;;5034073;28;20439;-45
2022/06/01 02:58:02;;;;;;;5.83;4.40;;;15.20;99.90;;;;;;5034046;28;20447;-45
2022/06/01 03:00:33;;;;;;;5.47;5.00;;;15.50;99.90;;;;;;5033770;28;20436;-45
2022/06/01 03:03:01;;;;;;;6.43;5.30;;;15.50;99.90;;;;;;5033655;28;20572;-45
2022/06/01 03:05:31;;;;;;;5.47;4.93;;;15.40;99.90;;;;;;5033787;28;20495;-45
2022/06/01 03:07:58;;;;;;;5.83;5.33;;;15.50;99.90;;;;;;5033829;28;20522;-45
2022/06/01 03:10:26;;;;;;;5.43;4.93;;;15.40;99.90;;;;;;5033220;28;20432;-45
2022/06/01 03:12:53;;;;;;;6.53;5.60;;;15.50;99.90;;;;;;5031945;28;20475;-45
2022/06/01 03:15:22;;;;;;;6.20;5.60;;;15.90;99.90;;;;;;5033512;28;20443;-45
2022/06/01 03:17:49;;;;;;;5.93;5.33;;;15.30;99.90;;;;;;5033404;28;20442;-45
2022/06/01 03:20:18;;;;;;;5.37;4.90;;;15.50;99.90;;;;;;5033286;28;20427;-45
2022/06/01 03:22:47;;;;;;;6.20;5.70;;;15.10;99.90;;;;;;5033183;28;20470;-44
2022/06/01 03:25:15;;;;;;;7.70;6.93;;;15.30;99.90;;;;;;5033688;28;20482;-46
2022/06/01 03:27:42;;;;;;;8.13;5.27;;;15.50;99.90;;;;;;5032208;28;20470;-44
2022/06/01 03:30:13;;;;;;;5.80;5.20;;;15.40;99.90;;;;;;5032973;28;20543;-45
2022/06/01 03:32:39;;;;;;;7.70;5.37;;;15.40;99.90;;;;;;5033487;28;20436;-44
2022/06/01 03:35:07;;;;;;;6.47;4.97;;;15.70;99.90;;;;;;5033397;28;20436;-45
2022/06/01 03:37:34;;;;;;;5.03;4.43;;;15.40;99.90;;;;;;5033061;28;20443;-45
2022/06/01 03:40:02;;;;;;;5.30;4.80;;;15.70;99.90;;;;;;5032748;28;20448;-45
2022/06/01 03:42:30;;;;;;;4.93;4.40;;;15.30;99.90;;;;;;5032978;28;20469;-45
2022/06/01 03:47:41;;;;;;;4.30;3.90;;;15.20;99.90;;;;;;5032900;28;20419;-46
2022/06/01 03:50:09;;;;;;;4.67;4.27;;;15.30;99.90;;;;;;5032455;28;20479;-45
2022/06/01 03:52:36;;;;;;;7.47;4.80;;;15.40;99.90;;;;;;5032963;28;20448;-46
2022/06/01 03:55:08;;;;;;;4.47;4.07;;;14.80;99.90;;;;;;5031732;28;20499;-45
2022/06/01 03:57:35;;;;;;;7.13;4.97;;;15.60;99.90;;;;;;5031350;28;20450;-45
2022/06/01 04:00:01;;;;;;;5.67;4.37;;;15.80;99.90;;;;;;5032341;28;20439;-45
2022/06/01 04:02:38;;;;;;;6.87;4.10;;;15.50;99.90;;;;;;5032617;28;20790;-44
2022/06/01 04:05:06;;;;;;;6.27;4.63;;;15.90;99.90;;;;;;5032724;28;20922;-45
2022/06/01 04:07:32;;;;;;;5.77;5.03;;;15.60;99.90;;;;;;5032106;28;20435;-44
2022/06/01 04:09:59;;;;;;;6.53;4.53;;;15.50;99.90;;;;;;5032529;28;20524;-44
2022/06/01 04:12:27;;;;;;;5.57;4.33;;;15.70;99.90;;;;;;5032819;28;20444;-45
2022/06/01 04:14:54;;;;;;;3.93;3.53;;;15.60;99.90;;;;;;5033504;28;20432;-44
2022/06/01 04:17:21;;;;;;;7.60;4.00;;;15.30;99.90;;;;;;5032568;28;20435;-44
2022/06/01 04:19:47;;;;;;;4.60;4.20;;;15.20;99.90;;;;;;5032764;28;20946;-43
2022/06/01 04:22:15;;;;;;;4.20;3.80;;;15.70;99.90;;;;;;5033270;28;20526;-44
2022/06/01 04:24:42;;;;;;;4.90;3.70;;;15.80;99.90;;;;;;5031271;28;20483;-44
2022/06/01 04:27:09;;;;;;;5.60;4.30;;;15.70;99.90;;;;;;5033014;28;20436;-44
2022/06/01 04:29:37;;;;;;;4.43;4.03;;;15.90;99.90;;;;;;5032638;28;20952;-43
2022/06/01 04:32:06;;;;;;;5.73;4.40;;;15.70;99.90;;;;;;5032739;28;20436;-43
2022/06/01 04:34:33;;;;;;;5.10;4.60;;;15.90;99.90;;;;;;5032641;28;20452;-44
2022/06/01 04:37:00;;;;;;;4.70;4.30;;;15.90;99.90;;;;;;5033062;28;20522;-42
2022/06/01 04:39:26;;;;;;;4.40;4.07;;;15.80;99.90;;;;;;5032811;28;20510;-43
2022/06/01 04:41:53;;;;;;;5.87;4.90;;;15.70;99.90;;;;;;5033059;28;20431;-43
2022/06/01 04:44:20;;;;;;;4.60;4.20;;;16.20;99.90;;;;;;5032830;28;20475;-42
2022/06/01 04:46:48;;;;;;;6.00;4.90;;;15.50;99.90;;;;;;5032887;28;20458;-44
2022/06/01 04:49:15;;;;;;;8.37;5.00;;;16.30;99.90;;;;;;5032940;28;20550;-44
2022/06/01 04:51:41;;;;;;;6.83;5.10;;;15.80;99.90;;;;;;5033205;28;20439;-43
2022/06/01 04:54:08;;;;;;;5.33;4.83;;;15.90;99.90;;;;;;5032469;28;20451;-42
2022/06/01 04:56:35;;;;;;;5.77;4.70;;;16.00;99.90;;;;;;5032687;28;20815;-44
2022/06/01 04:59:02;;;;;;;5.43;4.77;;;16.30;99.90;;;;;;5032569;28;20780;-43
2022/06/01 05:01:29;;;;;;;5.67;5.13;;;16.60;99.90;;;;;;5032634;28;20458;-44
2022/06/01 05:03:57;;;;;;;5.10;4.00;;;16.90;99.90;;;;;;5032491;28;20467;-44
2022/06/01 05:06:24;;;;;;;5.60;5.10;;;17.20;99.90;;;;;;5032643;28;20483;-44
2022/06/01 05:08:51;;;;;;;5.70;5.10;;;16.50;99.90;;;;;;5032336;28;20453;-44
2022/06/01 05:11:18;;;;;;;5.20;4.70;;;16.20;99.90;;;;;;5032819;28;20427;-44
2022/06/01 05:13:44;;;;;;;14.57;9.80;;;16.50;99.90;;;;;;5036444;28;20562;-43
2022/06/01 05:16:11;;;;;;;5.50;5.00;;;16.70;99.90;;;;;;5035140;28;20516;-43
2022/06/01 05:18:38;;;;;;;7.13;5.33;;;17.10;99.90;;;;;;5035871;28;20432;-44
2022/06/01 05:21:06;;;;;;;6.67;5.20;;;16.60;99.90;;;;;;5036215;28;20431;-44
2022/06/01 05:23:33;;;;;;;7.97;5.27;;;16.80;99.90;;;;;;5040072;28;20964;-42
2022/06/01 05:26:00;;;;;;;5.63;4.70;;;16.80;99.90;;;;;;5039454;28;20444;-42
2022/06/01 05:28:29;;;;;;;5.80;5.30;;;16.60;99.90;;;;;;5038348;28;20536;-43
2022/06/01 05:30:57;;;;;;;4.83;4.37;;;17.20;99.90;;;;;;5036363;28;20429;-44
2022/06/01 05:33:24;;;;;;;5.40;4.90;;;17.10;99.90;;;;;;5036093;28;20467;-43
2022/06/01 05:35:51;;;;;;;7.30;5.70;;;17.10;99.90;;;;;;5036536;28;20791;-44
2022/06/01 05:38:19;;;;;;;8.20;7.47;;;17.30;99.90;;;;;;5035696;28;20438;-43
2022/06/01 05:40:45;;;;;;;10.07;5.70;;;17.40;99.90;;;;;;5035953;28;20463;-43
2022/06/01 05:43:15;;;;;;;5.50;5.00;;;17.40;99.60;;;;;;5035121;28;20460;-44
2022/06/01 05:45:42;;;;;;;9.20;4.20;;;17.70;99.30;;;;;;5035913;28;20508;-42
2022/06/01 05:48:10;;;;;;;7.87;4.97;;;17.70;98.80;;;;;;5035654;28;20444;-43
2022/06/01 05:50:37;;;;;;;6.90;5.30;;;17.90;98.40;;;;;;5034690;28;20543;-44
2022/06/01 05:53:04;;;;;;;5.27;4.77;;;18.10;98.10;;;;;;5034602;28;20772;-44
2022/06/01 05:55:32;;;;;;;9.13;6.50;;;18.00;97.80;;;;;;5035693;28;20446;-43
2022/06/01 05:57:59;;;;;;;5.20;4.70;;;18.00;97.50;;;;;;5035827;28;20442;-43
2022/06/01 06:00:26;;;;;;;8.47;4.30;;;17.70;96.70;;;;;;5035429;28;20432;-43
2022/06/01 06:02:52;;;;;;;6.10;5.50;;;17.80;96.40;;;;;;5035387;28;20457;-43
2022/06/01 06:08:04;;;;;;;6.73;5.13;;;18.60;96.10;;;;;;5036154;28;20431;-44
2022/06/01 06:10:32;;;;;;;6.63;4.70;;;18.50;95.40;;;;;;5036218;28;20453;-43
2022/06/01 06:12:59;;;;;;;4.77;4.07;;;18.50;95.00;;;;;;5036066;28;20978;-43
2022/06/01 06:15:25;;;;;;;5.30;4.50;;;18.20;94.50;;;;;;5036207;28;20444;-44
2022/06/01 06:17:52;;;;;;;9.50;5.70;;;18.70;94.70;;;;;;5035630;28;20488;-44
2022/06/01 06:20:18;;;;;;;10.27;5.37;;;18.60;94.00;;;;;;5034623;28;20461;-44
2022/06/01 06:22:45;;;;;;;12.00;4.60;;;19.00;94.10;;;;;;5035349;28;20459;-44
2022/06/01 06:25:12;;;;;;;4.10;3.70;;;19.50;94.10;;;;;;5033999;28;21010;-44
2022/06/01 06:27:40;;;;;;;5.20;4.30;;;19.10;93.60;;;;;;5036265;28;20433;-44
2022/06/01 06:30:08;;;;;;;5.20;4.40;;;19.30;93.60;;;;;;5035400;28;20516;-43
2022/06/01 06:32:34;;;;;;;5.87;4.60;;;19.20;93.20;;;;;;5035928;28;20427;-43
2022/06/01 06:35:01;;;;;;;4.50;4.00;;;18.80;93.10;;;;;;5035523;28;20433;-44
2022/06/01 06:37:28;;;;;;;8.37;4.20;;;19.40;92.90;;;;;;5035641;28;20916;-45
2022/06/01 06:39:54;;;;;;;7.27;5.23;;;19.20;92.70;;;;;;5035212;28;20434;-44
2022/06/01 06:42:21;;;;;;;6.50;4.50;;;19.70;93.00;;;;;;5035682;28;20525;-43
2022/06/01 06:44:49;;;;;;;4.50;4.10;;;19.30;92.60;;;;;;5037085;28;20829;-45
2022/06/01 06:47:16;;;;;;;6.80;4.60;;;19.80;92.70;;;;;;5037409;28;20438;-44
2022/06/01 06:49:43;;;;;;;4.87;3.77;;;19.40;92.30;;;;;;5034555;28;20458;-43
2022/06/01 06:52:10;;;;;;;9.40;4.13;;;19.20;92.20;;;;;;5036476;28;20427;-43
2022/06/01 06:54:36;;;;;;;4.90;3.67;;;19.40;91.80;;;;;;5035775;28;20559;-44
2022/06/01 06:57:03;;;;;;;4.03;3.10;;;19.70;91.70;;;;;;5036173;28;20924;-42
2022/06/01 06:59:30;;;;;;;5.10;4.10;;;19.70;91.40;;;;;;5035156;28;20462;-44
2022/06/01 07:01:58;;;;;;;5.93;4.10;;;19.80;91.40;;;;;;5037820;28;20932;-43
2022/06/01 07:04:24;;;;;;;3.90;3.17;;;20.10;91.50;;;;;;5034075;28;20582;-44
2022/06/01 07:06:51;;;;;;;7.90;3.67;;;19.80;91.20;;;;;;5036725;28;20510;-42
2022/06/01 07:09:18;;;;;;;6.13;3.90;;;19.80;90.90;;;;;;5035759;28;20479;-45
2022/06/01 07:11:44;;;;;;;5.73;5.10;;;19.80;90.80;;;;;;5037451;28;20470;-43
2022/06/01 07:14:11;;;;;;;4.33;3.93;;;19.70;90.60;;;;;;5035217;28;20471;-43
2022/06/01 07:16:38;;;;;;;4.77;3.87;;;19.80;90.40;;;;;;5035099;28;20435;-44
2022/06/01 07:19:08;;;;;;;3.47;3.17;;;19.80;90.30;;;;;;5034657;28;20446;-44
2022/06/01 07:21:36;;;;;;;3.70;3.27;;;20.10;90.50;;;;;;5034817;28;20505;-44
2022/06/01 07:24:04;;;;;;;4.00;3.30;;;19.90;90.30;;;;;;5034253;28;20526;-44
2022/06/01 07:26:33;;;;;;;3.40;3.10;;;20.40;90.50;;;;;;5032933;28;20852;-45
2022/06/01 07:29:00;;;;;;;4.03;3.63;;;20.30;90.40;;;;;;5033669;28;20450;-42
2022/06/01 07:31:27;;;;;;;9.00;3.47;;;20.20;90.10;;;;;;5034357;28;20810;-44
2022/06/01 07:33:53;;;;;;;3.87;3.50;;;20.30;90.00;;;;;;5035307;28;20809;-44
2022/06/01 07:36:21;;;;;;;6.30;3.87;;;20.60;90.00;;;;;;5033870;28;20439;-43
2022/06/01 07:44:20;;;;;;;3.93;3.53;;;20.90;88.00;;;;;;5034103;28;20476;-44
2022/06/01 07:46:48;;;;;;;3.87;3.03;;;20.90;87.30;;;;;;5033822;28;20462;-45
2022/06/01 07:49:15;;;;;;;5.03;2.80;;;21.00;87.20;;;;;;5033696;28;20468;-43
2022/06/01 07:51:43;;;;;;;3.73;2.30;;;21.00;86.50;;;;;;5033701;28;20445;-43
2022/06/01 07:54:10;;;;;;;9.10;3.00;;;21.10;86.40;;;;;;5033813;28;20453;-43
2022/06/01 07:56:37;;;;;;;4.73;2.23;;;21.10;86.30;;;;;;5033680;28;20941;-44
2022/06/01 07:59:06;;;;;;;3.60;2.97;;;21.50;86.40;;;;;;5033447;28;20810;-44
2022/06/01 08:01:32;;;;;;;4.07;2.80;;;21.20;85.50;;;;;;5034099;28;20447;-44
2022/06/01 08:04:02;;;;;;;5.50;2.63;;;21.20;85.00;;;;;;5034989;28;20458;-46
2022/06/01 08:06:29;;;;;;;3.90;2.80;;;21.30;85.00;;;;;;5033304;28;20429;-44
2022/06/01 08:08:58;;;;;;;3.10;2.37;;;21.30;84.60;;;;;;5033328;28;20447;-44
2022/06/01 08:13:06;;;;;;;3.23;2.83;;;21.20;84.40;;;;;;5034356;28;20801;-44
2022/06/01 08:14:12;;;;;;;5.67;2.97;;;21.60;84.60;;;;;;5034139;28;20592;-43
2022/06/01 08:16:39;;;;;;;3.87;3.57;;;21.20;83.50;;;;;;5033701;28;20470;-44
2022/06/01 08:19:07;;;;;;;9.00;2.87;;;21.50;83.70;;;;;;5036039;28;20439;-44
2022/06/01 08:21:35;;;;;;;5.53;3.40;;;21.50;84.20;;;;;;5034540;28;20441;-44
2022/06/01 08:24:03;;;;;;;3.80;3.07;;;21.50;83.20;;;;;;5033203;28;20461;-44
2022/06/01 08:26:30;;;;;;;4.27;3.37;;;21.30;82.80;;;;;;5033296;28;20430;-44
2022/06/01 08:28:57;;;;;;;4.00;2.90;;;21.70;83.50;;;;;;5033143;28;20442;-43
2022/06/01 08:31:27;;;;;;;3.27;2.70;;;21.00;81.70;;;;;;5033343;28;20954;-44
2022/06/01 08:33:53;;;;;;;3.70;2.63;;;21.50;81.40;;;;;;5033365;28;20839;-44
2022/06/01 08:36:20;;;;;;;3.73;2.50;;;21.50;79.80;;;;;;5033740;28;20538;-45
2022/06/01 08:38:47;;;;;;;5.63;3.00;;;21.30;78.00;;;;;;5033108;28;20437;-44
2022/06/01 08:41:16;;;;;;;3.90;2.40;;;21.60;78.00;;;;;;5033753;28;20832;-43
2022/06/01 08:43:45;;;;;;;3.90;3.10;;;21.70;77.60;;;;;;5033671;28;20470;-44
2022/06/01 08:46:14;;;;;;;4.43;4.00;;;21.80;77.70;;;;;;5033818;28;20564;-44
2022/06/01 08:48:43;;;;;;;4.70;3.33;;;21.60;77.70;;;;;;5036352;28;20920;-44
2022/06/01 08:51:11;;;;;;;5.77;3.20;;;21.50;76.90;;;;;;5036773;28;20449;-44
2022/06/01 08:53:38;;;;;;;7.10;3.60;;;21.70;77.20;;;;;;5037150;28;20466;-44
2022/06/01 08:56:10;;;;;;;5.20;3.53;;;21.70;77.10;;;;;;5036777;28;20453;-44
2022/06/01 08:58:43;;;;;;;3.63;2.83;;;21.80;76.40;;;;;;5036867;28;20435;-44
2022/06/01 09:01:18;;;;;;;5.50;3.50;;;21.80;75.90;;;;;;5037291;28;20446;-43
2022/06/01 09:03:53;;;;;;;5.13;2.70;;;22.20;75.70;;;;;;5036701;28;20460;-43
2022/06/01 09:06:26;;;;;;;4.27;2.83;;;22.10;75.30;;;;;;5036877;28;20595;-43
2022/06/01 09:08:58;;;;;;;2.73;2.27;;;22.00;75.40;;;;;;5036474;28;20437;-44
2022/06/01 09:11:29;;;;;;;5.50;3.30;;;22.10;75.60;;;;;;5036644;28;20437;-43
2022/06/01 09:14:05;;;;;;;3.13;2.77;;;21.90;74.50;;;;;;5035018;28;20540;-44
2022/06/01 09:16:36;;;;;;;4.23;2.80;;;22.00;74.00;;;;;;5037119;28;20438;-44
2022/06/01 09:19:04;;;;;;;6.50;2.77;;;22.00;74.60;;;;;;5036659;28;20446;-43
2022/06/01 09:24:22;;;;;;;5.17;2.97;;;22.20;74.50;;;;;;5034344;28;20486;-43
2022/06/01 09:26:52;;;;;;;3.70;2.80;;;21.90;73.90;;;;;;5026050;28;20528;-43
2022/06/01 09:29:22;;;;;;;2.93;2.10;;;22.10;71.40;;;;;;5037076;28;20549;-45
2022/06/01 09:31:55;;;;;;;4.20;2.77;;;22.30;70.20;;;;;;5039314;28;20442;-46
2022/06/01 09:34:27;;;;;;;3.60;2.87;;;22.50;70.60;;;;;;5029380;28;20493;-43
2022/06/01 09:36:57;;;;;;;2.70;2.43;;;22.30;70.50;;;;;;5029349;28;20447;-45
2022/06/01 09:39:25;;;;;;;5.70;3.40;;;22.00;70.20;;;;;;5038010;28;20545;-44
2022/06/01 09:41:52;;;;;;;5.43;2.43;;;21.80;70.20;;;;;;5021310;28;20473;-46
2022/06/01 09:44:34;;;;;;;4.37;2.80;;;21.60;70.70;;;;;;5019133;28;20459;-42
2022/06/01 09:47:03;;;;;;;3.03;2.33;;;21.50;69.90;;;;;;5016609;28;20544;-44
2022/06/01 09:49:32;;;;;;;5.00;2.83;;;21.40;70.90;;;;;;5034618;28;20468;-46
2022/06/01 09:52:02;;;;;;;3.30;2.60;;;21.20;70.80;;;;;;5036902;28;20438;-44
2022/06/01 09:54:31;;;;;;;3.63;2.40;;;21.20;71.20;;;;;;5016655;28;20471;-45
2022/06/01 09:57:16;;;;;;;5.17;2.73;;;20.70;70.00;;;;;;5017092;28;20467;-44
2022/06/01 10:08:13;;;;;;;3.50;2.33;;;21.10;69.90;;;;;;5015973;28;20441;-42
2022/06/01 10:10:55;;;;;;;4.63;2.80;;;21.20;68.80;;;;;;5017216;28;20482;-43
2022/06/01 10:13:29;;;;;;;4.47;2.57;;;21.00;68.30;;;;;;5022114;28;20479;-42
2022/06/01 10:16:00;;;;;;;5.97;2.50;;;21.60;67.40;;;;;;5026445;28;20512;-41
2022/06/01 10:18:32;;;;;;;2.47;2.20;;;21.30;66.90;;;;;;5033835;28;20454;-43
2022/06/01 10:21:05;;;;;;;3.10;2.03;;;21.60;66.50;;;;;;5033869;28;20440;-43
2022/06/01 10:23:40;;;;;;;9.50;6.57;;;21.30;65.60;;;;;;5028804;28;20485;-42
2022/06/01 10:26:11;;;;;;;3.70;2.60;;;21.70;66.40;;;;;;5028057;28;20543;-44
2022/06/01 10:28:41;;;;;;;4.00;2.87;;;21.70;66.90;;;;;;5026249;28;20954;-42
2022/06/01 10:31:19;;;;;;;4.40;2.30;;;21.50;66.40;;;;;;5034138;28;20900;-42
2022/06/01 10:33:51;;;;;;;3.97;2.37;;;21.40;64.80;;;;;;5014474;28;20808;-42
2022/06/01 10:36:22;;;;;;;3.53;2.10;;;21.40;64.70;;;;;;5029242;28;20444;-42
2022/06/01 10:38:59;;;;;;;7.83;2.33;;;21.20;65.10;;;;;;5033430;28;20453;-43
2022/06/01 10:41:32;;;;;;;3.43;2.60;;;21.20;65.00;;;;;;5033787;28;20449;-43
2022/06/01 10:44:05;;;;;;;4.00;2.67;;;21.60;65.80;;;;;;5033998;28;20477;-44
2022/06/01 10:46:42;;;;;;;4.67;2.30;;;21.70;64.70;;;;;;5033275;28;20514;-44
2022/06/01 10:49:27;;;;;;;6.23;2.57;;;21.70;64.20;;;;;;5033139;28;20446;-43
2022/06/01 10:52:03;;;;;;;3.93;3.07;;;22.00;64.80;;;;;;5033358;28;20438;-44
2022/06/01 10:54:39;;;;;;;3.97;2.60;;;22.00;64.30;;;;;;5032206;28;20481;-44
2022/06/01 10:57:11;;;;;;;2.97;2.07;;;21.60;64.10;;;;;;5033121;28;20445;-43
2022/06/01 10:59:38;;;;;;;4.60;2.63;;;21.40;63.30;;;;;;5033285;28;20442;-44
2022/06/01 11:02:24;;;;;;;9.10;3.27;;;21.40;62.60;;;;;;5032357;28;20457;-43
2022/06/01 11:05:04;;;;;;;4.70;3.20;;;22.00;62.80;;;;;;5030814;28;20928;-44
2022/06/01 11:07:45;;;;;;;3.30;2.90;;;22.30;62.60;;;;;;5013845;28;20428;-43
2022/06/01 11:10:18;;;;;;;4.13;2.50;;;22.20;63.50;;;;;;5010886;28;20462;-43
2022/06/01 11:12:55;;;;;;;2.30;2.10;;;22.30;63.50;;;;;;5022283;28;20466;-41
2022/06/01 11:15:27;;;;;;;3.73;2.47;;;22.10;63.10;;;;;;5033598;28;20442;-42
2022/06/01 11:18:02;;;;;;;3.80;2.37;;;22.10;61.10;;;;;;5025557;28;20814;-43
2022/06/01 11:20:52;;;;;;;5.17;2.60;;;22.40;60.80;;;;;;5018959;28;21008;-42
2022/06/01 11:23:40;;;;;;;4.70;2.40;;;23.10;61.00;;;;;;5017430;28;20533;-43
2022/06/01 11:26:16;;;;;;;3.47;2.57;;;22.80;60.00;;;;;;5033466;28;20530;-43
2022/06/01 11:29:11;;;;;;;4.80;2.93;;;23.20;60.50;;;;;;5033079;28;20435;-43
2022/06/01 11:31:39;;;;;;;3.37;2.53;;;22.90;59.60;;;;;;5033264;28;20520;-41
2022/06/01 11:34:13;;;;;;;3.57;2.53;;;22.90;59.80;;;;;;5033798;28;20452;-40
2022/06/01 11:36:49;;;;;;;4.93;2.70;;;23.30;59.60;;;;;;5034112;28;20454;-41
2022/06/01 11:39:25;;;;;;;5.20;2.10;;;22.50;58.40;;;;;;5033531;28;20450;-42
2022/06/01 11:41:59;;;;;;;6.40;2.80;;;23.30;58.60;;;;;;5033862;28;20444;-42
2022/06/01 11:44:30;;;;;;;3.77;2.57;;;23.10;58.30;;;;;;5032904;28;20559;-42
2022/06/01 11:47:02;;;;;;;4.77;3.00;;;23.40;58.50;;;;;;5033430;28;20864;-45
2022/06/01 11:49:35;;;;;;;4.77;2.60;;;22.70;58.10;;;;;;5033559;28;20475;-45
2022/06/01 11:52:25;;;;;;;8.00;2.50;;;23.00;58.40;;;;;;5033574;28;20433;-43
2022/06/01 11:54:56;;;;;;;4.30;2.40;;;22.80;58.10;;;;;;5025258;28;20519;-44
2022/06/01 11:57:25;;;;;;;3.60;2.80;;;22.90;58.10;;;;;;5027670;28;20805;-44
2022/06/01 11:59:55;;;;;;;9.90;2.80;;;22.40;57.50;;;;;;5031783;28;20452;-43
2022/06/01 12:02:40;;;;;;;6.00;2.60;;;22.70;58.00;;;;;;5031429;28;20471;-44
2022/06/01 12:05:12;;;;;;;3.53;2.67;;;22.60;57.90;;;;;;5031931;28;20857;-42
2022/06/01 12:07:41;;;;;;;5.43;2.53;;;22.50;57.40;;;;;;5032070;28;20433;-43
2022/06/01 12:10:23;;;;;;;2.67;2.47;;;22.50;57.40;;;;;;5031612;28;20501;-43
2022/06/01 12:13:01;;;;;;;7.77;2.47;;;22.90;57.50;;;;;;5032022;28;20801;-44
2022/06/01 12:15:32;;;;;;;5.67;2.40;;;22.90;57.40;;;;;;5032098;28;20558;-43
2022/06/01 12:18:08;;;;;;;5.33;2.67;;;23.10;57.60;;;;;;5031675;28;20441;-44
2022/06/01 12:20:55;;;;;;;2.60;2.27;;;23.20;57.60;;;;;;5031920;28;20447;-43
2022/06/01 12:29:43;;;;;;;4.30;2.10;;;23.30;56.50;;;;;;5031152;28;20493;-43
2022/06/01 12:32:15;;;;;;;3.73;2.13;;;23.20;56.10;;;;;;5016740;28;20911;-46
2022/06/01 12:34:49;;;;;;;5.50;2.07;;;23.20;56.30;;;;;;5030839;28;20538;-46
2022/06/01 12:37:22;;;;;;;4.00;2.00;;;22.70;55.90;;;;;;5024008;28;20765;-42
2022/06/01 12:39:54;;;;;;;3.13;2.23;;;22.70;56.10;;;;;;5011694;28;20443;-41
2022/06/01 12:42:27;;;;;;;3.70;1.83;;;23.20;56.80;;;;;;5022668;28;20440;-42
2022/06/01 12:44:55;;;;;;;3.10;1.87;;;22.80;56.60;;;;;;5031572;28;20910;-43
2022/06/01 12:47:24;;;;;;;3.43;2.10;;;22.60;56.70;;;;;;5031398;28;20482;-41
2022/06/01 12:49:51;;;;;;;2.43;1.53;;;22.60;57.20;;;;;;5018113;28;20920;-41
2022/06/01 12:52:21;;;;;;;4.23;2.13;;;21.80;56.80;;;;;;5012234;28;20442;-42
2022/06/01 12:54:57;;;;;;;4.00;2.50;;;22.40;58.00;;;;;;5020592;28;20460;-44
2022/06/01 12:57:26;;;;;;;5.53;2.27;;;22.00;58.00;;;;;;5015363;28;20444;-42
2022/06/01 12:59:58;;;;;;;11.70;4.30;;;22.00;59.20;;;;;;5024517;28;20541;-42
2022/06/01 13:02:25;;;;;;;8.83;3.50;;;21.80;68.50;;;;;;5010410;28;20440;-43
2022/06/01 13:04:53;;;;;;;5.47;3.20;;;21.00;74.30;;;;;;5008074;28;20470;-43
2022/06/01 13:07:24;;;;;;;4.67;3.40;;;21.00;77.50;;;;;;5009593;28;20483;-42
2022/06/01 13:10:00;;;;;;;3.97;3.53;;;20.70;79.50;;;;;;5009377;28;20474;-43
2022/06/01 13:12:30;;;;;;;6.80;2.90;;;20.90;82.40;;;;;;5009191;28;20450;-44
2022/06/01 13:15:08;;;;;;;5.97;3.87;;;20.80;83.30;;;;;;5010121;28;20788;-44
2022/06/01 13:17:46;;;;;;;5.00;3.43;;;20.70;85.70;;;;;;5009830;28;20457;-41
2022/06/01 13:20:14;;;;;;;5.40;3.60;;;20.70;86.60;;;;;;5011217;28;20433;-42
2022/06/01 13:22:47;;;;;;;9.73;4.10;;;20.10;87.30;;;;;;5047114;28;20990;-42
2022/06/01 13:25:19;;;;;;;4.97;4.10;;;20.20;90.00;;;;;;5031090;28;20436;-44
2022/06/01 13:27:47;;;;;;;5.33;3.67;;;20.20;90.70;;;;;;5031149;28;20480;-42
2022/06/01 13:30:15;;;;;;;6.53;3.90;;;20.20;90.60;;;;;;5029332;28;20447;-43
2022/06/01 13:32:44;;;;;;;4.00;3.20;;;20.40;90.40;;;;;;5031296;28;20468;-42